Buoy 13569

sailwx.info

Track history (hours):
 
Tides and Currents Weather Stations Pressure Air Temp Water Temp Dewpoint Dewpoint Depression Visibility Wind Speed Wind Dir Waves Ship Positions

Drifting buoy 13569

Last reported at 2015-Mar-01 04:00 UTC. Time now 2015-Mar-01 06:57 UTC.
Position N 32°12' W 029°57'.

Barometer 1033.8 mb
Water temperature 19.2 ° C

Date/timePositionNaut miles runAvg speedWind from/ knotsBaromVisibWave heightAir tempDewpointWater temp
2015-Mar-01 04:00N 32°12' W 029°57'0 0.1 1033.8 19.2
2015-Feb-28 22:00N 32°13' W 029°58'0 0.1 1035.6 19.2
2015-Feb-28 20:00N 32°12' W 029°57'0 0.0 1034.4 19.2
2015-Feb-28 19:00N 32°12' W 029°57'1 0.4 1034.0 19.3
2015-Feb-28 17:00N 32°12' W 029°58'0 0.0 1034.0 19.3
2015-Feb-28 16:00N 32°12' W 029°58'1 0.8 1034.5 19.4
2015-Feb-28 15:00N 32°12' W 029°59'0 0.2 1035.0 19.4
2015-Feb-28 14:00N 32°12' W 029°59'0 0.1 1035.9 19.4
2015-Feb-28 12:00N 32°12' W 029°59'0 0.0 1036.5 19.3
2015-Feb-28 11:00N 32°12' W 029°59'1 0.6 1036.3 19.3
2015-Feb-28 10:00N 32°13' W 029°59'0 0.0 1035.9 19.3
2015-Feb-28 08:00N 32°13' W 029°59'0 0.2 1034.8 19.3
2015-Feb-28 06:00N 32°13' W 029°59'0 0.0 1034.0 19.3
2015-Feb-28 04:00N 32°13' W 029°59'0 0.1 1034.1 19.3
2015-Feb-27 23:00N 32°13' W 029°59'2 0.3 1035.6 19.3
2015-Feb-27 17:00N 32°15' W 029°58'0 0.0 1033.8 19.2
2015-Feb-27 16:00N 32°15' W 029°58'0 0.2 1034.0 19.2
2015-Feb-27 14:00N 32°15' W 029°57'1 0.2 1034.8 19.3
2015-Feb-27 08:00N 32°15' W 029°56'1 0.5 1033.5 19.2
2015-Feb-27 06:00N 32°16' W 029°57'1 0.7 1032.9 19.2
2015-Feb-27 05:00N 32°16' W 029°58'3 0.3 1032.8 19.2
2015-Feb-26 20:00N 32°15' W 029°54'0 0.0 1032.6 19.3
2015-Feb-26 19:00N 32°15' W 029°54'0 0.0 1032.3 19.3
2015-Feb-26 18:00N 32°15' W 029°54'1 0.3 1031.9 19.3
2015-Feb-26 16:00N 32°16' W 029°54'0 0.0 1032.4 19.3
2015-Feb-26 15:00N 32°16' W 029°54'0 0.0 1032.8 19.3
2015-Feb-26 14:00N 32°16' W 029°54'1 0.7 1033.1 19.3
2015-Feb-26 12:00N 32°15' W 029°53'2 1.6 1034.0 19.2
2015-Feb-26 11:00N 32°15' W 029°51'0 0.0 1033.9 19.2
2015-Feb-26 07:00N 32°15' W 029°51'0 0.4 1033.0 19.2
2015-Feb-26 06:00N 32°15' W 029°51'0 0.0 1033.0 19.2
2015-Feb-26 05:00N 32°15' W 029°51'0 0.4 1033.0 19.2
2015-Feb-26 04:00N 32°15' W 029°51'0 0.5 1033.5 19.2
2015-Feb-26 03:00N 32°15' W 029°52'0 0.5 1033.9 19.2
2015-Feb-26 02:00N 32°15' W 029°51'2 0.6 1034.0 19.2
2015-Feb-25 23:00N 32°14' W 029°51'2 1.8 1034.8 19.2
2015-Feb-25 22:00N 32°13' W 029°49'0 0.0 1034.6 19.3
2015-Feb-25 20:00N 32°13' W 029°49'3 1.3 1034.0 19.3
2015-Feb-25 18:00N 32°14' W 029°46'0 0.0 1033.5 19.3
2015-Feb-25 17:00N 32°14' W 029°46'0 0.0 1033.4 19.3
2015-Feb-25 15:00N 32°14' W 029°46'1 0.3 1034.0 19.3
2015-Feb-25 12:00N 32°13' W 029°45'2 1.5 1035.3 19.3
2015-Feb-25 11:00N 32°13' W 029°44'0 0.0 1035.3 19.3
2015-Feb-25 08:00N 32°13' W 029°44'0 0.1 1033.3 19.3
2015-Feb-25 07:00N 32°13' W 029°44'0 0.1 1033.0 19.3
2015-Feb-25 06:00N 32°13' W 029°44'1 0.8 1032.9 19.3
2015-Feb-25 05:00N 32°14' W 029°43'1 0.4 1033.0 19.3
2015-Feb-25 03:00N 32°13' W 029°43'2 0.4 1033.6 19.3
2015-Feb-24 23:00N 32°12' W 029°42'0 0.0 1034.4 19.3
2015-Feb-24 21:00N 32°12' W 029°42'0 0.2 1033.5 19.3
2015-Feb-24 19:00N 32°12' W 029°42'2 0.2 1032.9 19.3
2015-Feb-24 11:00N 32°13' W 029°39'0 0.0 1033.8 19.3
2015-Feb-24 08:00N 32°13' W 029°39'1 0.6 1032.5 19.3
2015-Feb-24 07:00N 32°12' W 029°39'0 0.1 1032.3 19.3
2015-Feb-24 05:00N 32°12' W 029°39'0 0.2 1032.0 19.3
2015-Feb-24 04:00N 32°12' W 029°38'0 0.4 1032.3 19.3
2015-Feb-24 03:00N 32°13' W 029°39'1 1.3 1032.5 19.3
2015-Feb-24 02:00N 32°11' W 029°38'0 0.0 1033.0 19.3
2015-Feb-23 23:00N 32°11' W 029°38'0 0.0 1033.0 19.3
2015-Feb-23 22:00N 32°11' W 029°38'2 0.7 1032.8 19.3
2015-Feb-23 19:00N 32°11' W 029°36'1 0.2 1031.3 19.3
2015-Feb-23 15:00N 32°11' W 029°35'1 0.2 1031.6 19.4
2015-Feb-23 12:00N 32°11' W 029°36'2 0.5 1032.9 19.4
2015-Feb-23 09:00N 32°10' W 029°35'1 0.5 1032.0 19.3
2015-Feb-23 07:00N 32°10' W 029°34'0 0.0 1031.0 19.4
2015-Feb-23 06:00N 32°10' W 029°34'0 0.2 1030.8 19.4
2015-Feb-23 04:00N 32°10' W 029°33'1 0.3 1031.6 19.4
2015-Feb-22 23:00N 32°09' W 029°33'1 0.2 1032.8 19.4
2015-Feb-22 19:00N 32°09' W 029°32'0 0.2 1031.3 19.4
2015-Feb-22 18:00N 32°09' W 029°32'1 1.0 1031.0 19.4
2015-Feb-22 17:00N 32°09' W 029°31'0 0.0 1031.4 19.4
2015-Feb-22 15:00N 32°09' W 029°31'1 0.5 1032.0 19.4
2015-Feb-22 12:00N 32°11' W 029°32'1 0.6 1033.5 19.3
2015-Feb-22 11:00N 32°10' W 029°32'1 0.2 1033.5 19.3
2015-Feb-22 08:00N 32°09' W 029°32'0 0.5 1032.5 19.3
2015-Feb-22 07:00N 32°09' W 029°31'0 0.0 1032.1 19.3
2015-Feb-22 06:00N 32°09' W 029°31'0 0.1 1031.9 19.3
2015-Feb-22 05:00N 32°10' W 029°31'1 1.1 1032.0 19.3
2015-Feb-22 04:00N 32°11' W 029°32'0 0.0 1032.5 19.3
2015-Feb-22 03:00N 32°11' W 029°32'0 0.0 1032.8 19.3
2015-Feb-22 00:00N 32°11' W 029°32'1 0.9 1033.9 19.3
2015-Feb-21 23:00N 32°10' W 029°33'6 0.5 1034.0 19.3
2015-Feb-21 11:00N 32°15' W 029°28'0 0.0 1035.4 19.3
2015-Feb-21 10:00N 32°15' W 029°28'0 0.0 1035.1 19.2
2015-Feb-21 09:00N 32°15' W 029°28'3 0.9 1034.6 19.3
2015-Feb-21 06:00N 32°15' W 029°25'5 0.7 1034.0 19.2
2015-Feb-20 23:00N 32°19' W 029°21'2 0.6 1036.0 19.2
2015-Feb-20 19:00N 32°19' W 029°19'0 0.0 1034.5 19.2
2015-Feb-20 18:00N 32°19' W 029°19'2 0.9 1034.4 19.2
2015-Feb-20 16:00N 32°20' W 029°17'5 0.6 1034.5 19.2
2015-Feb-20 08:00N 32°24' W 029°15'1 1.2 1035.9 19.2
2015-Feb-20 07:00N 32°24' W 029°13'0 0.0 1035.5 19.2
2015-Feb-20 06:00N 32°24' W 029°13'2 0.5 1035.5 19.2
2015-Feb-20 02:00N 32°25' W 029°11'3 0.3 1036.6 19.2
2015-Feb-19 16:00N 32°25' W 029°08'0 0.1 1035.0 19.2
2015-Feb-19 15:00N 32°25' W 029°08'0 0.0 1035.9 19.2
2015-Feb-19 14:00N 32°25' W 029°08'2 2.3 1036.9 19.2
2015-Feb-19 13:00N 32°24' W 029°05'1 0.3 1037.4 19.2
2015-Feb-19 11:00N 32°25' W 029°06'0 0.1 1036.5 19.2
2015-Feb-19 08:00N 32°24' W 029°06'2 0.4 1034.9 19.2
2015-Feb-19 04:00N 32°24' W 029°04'   1034.0 19.2
Track history (hours):
 
Tides and Currents Weather Stations Pressure Air Temp Water Temp Dewpoint Dewpoint Depression Visibility Wind Speed Wind Dir Waves Ship Positions

Drifting buoy 13569

Last reported at 2015-Mar-01 04:00 UTC. Time now 2015-Mar-01 06:57 UTC.
Position N 32°12' W 029°57'.

Barometer 1033.8 mb
Water temperature 19.2 ° C

Date/timePositionNaut miles runAvg speedWind from/ knotsBaromVisibWave heightAir tempDewpointWater temp
2015-Mar-01 04:00N 32°12' W 029°57'0 0.1 1033.8 19.2
2015-Feb-28 22:00N 32°13' W 029°58'0 0.1 1035.6 19.2
2015-Feb-28 20:00N 32°12' W 029°57'0 0.0 1034.4 19.2
2015-Feb-28 19:00N 32°12' W 029°57'1 0.4 1034.0 19.3
2015-Feb-28 17:00N 32°12' W 029°58'0 0.0 1034.0 19.3
2015-Feb-28 16:00N 32°12' W 029°58'1 0.8 1034.5 19.4
2015-Feb-28 15:00N 32°12' W 029°59'0 0.2 1035.0 19.4
2015-Feb-28 14:00N 32°12' W 029°59'0 0.1 1035.9 19.4
2015-Feb-28 12:00N 32°12' W 029°59'0 0.0 1036.5 19.3
2015-Feb-28 11:00N 32°12' W 029°59'1 0.6 1036.3 19.3
2015-Feb-28 10:00N 32°13' W 029°59'0 0.0 1035.9 19.3
2015-Feb-28 08:00N 32°13' W 029°59'0 0.2 1034.8 19.3
2015-Feb-28 06:00N 32°13' W 029°59'0 0.0 1034.0 19.3
2015-Feb-28 04:00N 32°13' W 029°59'0 0.1 1034.1 19.3
2015-Feb-27 23:00N 32°13' W 029°59'2 0.3 1035.6 19.3
2015-Feb-27 17:00N 32°15' W 029°58'0 0.0 1033.8 19.2
2015-Feb-27 16:00N 32°15' W 029°58'0 0.2 1034.0 19.2
2015-Feb-27 14:00N 32°15' W 029°57'1 0.2 1034.8 19.3
2015-Feb-27 08:00N 32°15' W 029°56'1 0.5 1033.5 19.2
2015-Feb-27 06:00N 32°16' W 029°57'1 0.7 1032.9 19.2
2015-Feb-27 05:00N 32°16' W 029°58'3 0.3 1032.8 19.2
2015-Feb-26 20:00N 32°15' W 029°54'0 0.0 1032.6 19.3
2015-Feb-26 19:00N 32°15' W 029°54'0 0.0 1032.3 19.3
2015-Feb-26 18:00N 32°15' W 029°54'1 0.3 1031.9 19.3
2015-Feb-26 16:00N 32°16' W 029°54'0 0.0 1032.4 19.3
2015-Feb-26 15:00N 32°16' W 029°54'0 0.0 1032.8 19.3
2015-Feb-26 14:00N 32°16' W 029°54'1 0.7 1033.1 19.3
2015-Feb-26 12:00N 32°15' W 029°53'2 1.6 1034.0 19.2
2015-Feb-26 11:00N 32°15' W 029°51'0 0.0 1033.9 19.2
2015-Feb-26 07:00N 32°15' W 029°51'0 0.4 1033.0 19.2
2015-Feb-26 06:00N 32°15' W 029°51'0 0.0 1033.0 19.2
2015-Feb-26 05:00N 32°15' W 029°51'0 0.4 1033.0 19.2
2015-Feb-26 04:00N 32°15' W 029°51'0 0.5 1033.5 19.2
2015-Feb-26 03:00N 32°15' W 029°52'0 0.5 1033.9 19.2
2015-Feb-26 02:00N 32°15' W 029°51'2 0.6 1034.0 19.2
2015-Feb-25 23:00N 32°14' W 029°51'2 1.8 1034.8 19.2
2015-Feb-25 22:00N 32°13' W 029°49'0 0.0 1034.6 19.3
2015-Feb-25 20:00N 32°13' W 029°49'3 1.3 1034.0 19.3
2015-Feb-25 18:00N 32°14' W 029°46'0 0.0 1033.5 19.3
2015-Feb-25 17:00N 32°14' W 029°46'0 0.0 1033.4 19.3
2015-Feb-25 15:00N 32°14' W 029°46'1 0.3 1034.0 19.3
2015-Feb-25 12:00N 32°13' W 029°45'2 1.5 1035.3 19.3
2015-Feb-25 11:00N 32°13' W 029°44'0 0.0 1035.3 19.3
2015-Feb-25 08:00N 32°13' W 029°44'0 0.1 1033.3 19.3
2015-Feb-25 07:00N 32°13' W 029°44'0 0.1 1033.0 19.3
2015-Feb-25 06:00N 32°13' W 029°44'1 0.8 1032.9 19.3
2015-Feb-25 05:00N 32°14' W 029°43'1 0.4 1033.0 19.3
2015-Feb-25 03:00N 32°13' W 029°43'2 0.4 1033.6 19.3
2015-Feb-24 23:00N 32°12' W 029°42'0 0.0 1034.4 19.3
2015-Feb-24 21:00N 32°12' W 029°42'0 0.2 1033.5 19.3
2015-Feb-24 19:00N 32°12' W 029°42'2 0.2 1032.9 19.3
2015-Feb-24 11:00N 32°13' W 029°39'0 0.0 1033.8 19.3
2015-Feb-24 08:00N 32°13' W 029°39'1 0.6 1032.5 19.3
2015-Feb-24 07:00N 32°12' W 029°39'0 0.1 1032.3 19.3
2015-Feb-24 05:00N 32°12' W 029°39'0 0.2 1032.0 19.3
2015-Feb-24 04:00N 32°12' W 029°38'0 0.4 1032.3 19.3
2015-Feb-24 03:00N 32°13' W 029°39'1 1.3 1032.5 19.3
2015-Feb-24 02:00N 32°11' W 029°38'0 0.0 1033.0 19.3
2015-Feb-23 23:00N 32°11' W 029°38'0 0.0 1033.0 19.3
2015-Feb-23 22:00N 32°11' W 029°38'2 0.7 1032.8 19.3
2015-Feb-23 19:00N 32°11' W 029°36'1 0.2 1031.3 19.3
2015-Feb-23 15:00N 32°11' W 029°35'1 0.2 1031.6 19.4
2015-Feb-23 12:00N 32°11' W 029°36'2 0.5 1032.9 19.4
2015-Feb-23 09:00N 32°10' W 029°35'1 0.5 1032.0 19.3
2015-Feb-23 07:00N 32°10' W 029°34'0 0.0 1031.0 19.4
2015-Feb-23 06:00N 32°10' W 029°34'0 0.2 1030.8 19.4
2015-Feb-23 04:00N 32°10' W 029°33'1 0.3 1031.6 19.4
2015-Feb-22 23:00N 32°09' W 029°33'1 0.2 1032.8 19.4
2015-Feb-22 19:00N 32°09' W 029°32'0 0.2 1031.3 19.4
2015-Feb-22 18:00N 32°09' W 029°32'1 1.0 1031.0 19.4
2015-Feb-22 17:00N 32°09' W 029°31'0 0.0 1031.4 19.4
2015-Feb-22 15:00N 32°09' W 029°31'1 0.5 1032.0 19.4
2015-Feb-22 12:00N 32°11' W 029°32'1 0.6 1033.5 19.3
2015-Feb-22 11:00N 32°10' W 029°32'1 0.2 1033.5 19.3
2015-Feb-22 08:00N 32°09' W 029°32'0 0.5 1032.5 19.3
2015-Feb-22 07:00N 32°09' W 029°31'0 0.0 1032.1 19.3
2015-Feb-22 06:00N 32°09' W 029°31'0 0.1 1031.9 19.3
2015-Feb-22 05:00N 32°10' W 029°31'1 1.1 1032.0 19.3
2015-Feb-22 04:00N 32°11' W 029°32'0 0.0 1032.5 19.3
2015-Feb-22 03:00N 32°11' W 029°32'0 0.0 1032.8 19.3
2015-Feb-22 00:00N 32°11' W 029°32'1 0.9 1033.9 19.3
2015-Feb-21 23:00N 32°10' W 029°33'6 0.5 1034.0 19.3
2015-Feb-21 11:00N 32°15' W 029°28'0 0.0 1035.4 19.3
2015-Feb-21 10:00N 32°15' W 029°28'0 0.0 1035.1 19.2
2015-Feb-21 09:00N 32°15' W 029°28'3 0.9 1034.6 19.3
2015-Feb-21 06:00N 32°15' W 029°25'5 0.7 1034.0 19.2
2015-Feb-20 23:00N 32°19' W 029°21'2 0.6 1036.0 19.2
2015-Feb-20 19:00N 32°19' W 029°19'0 0.0 1034.5 19.2
2015-Feb-20 18:00N 32°19' W 029°19'2 0.9 1034.4 19.2
2015-Feb-20 16:00N 32°20' W 029°17'5 0.6 1034.5 19.2
2015-Feb-20 08:00N 32°24' W 029°15'1 1.2 1035.9 19.2
2015-Feb-20 07:00N 32°24' W 029°13'0 0.0 1035.5 19.2
2015-Feb-20 06:00N 32°24' W 029°13'2 0.5 1035.5 19.2
2015-Feb-20 02:00N 32°25' W 029°11'3 0.3 1036.6 19.2
2015-Feb-19 16:00N 32°25' W 029°08'0 0.1 1035.0 19.2
2015-Feb-19 15:00N 32°25' W 029°08'0 0.0 1035.9 19.2
2015-Feb-19 14:00N 32°25' W 029°08'2 2.3 1036.9 19.2
2015-Feb-19 13:00N 32°24' W 029°05'1 0.3 1037.4 19.2
2015-Feb-19 11:00N 32°25' W 029°06'0 0.1 1036.5 19.2
2015-Feb-19 08:00N 32°24' W 029°06'2 0.4 1034.9 19.2
2015-Feb-19 04:00N 32°24' W 029°04'   1034.0 19.2

Dump ship's entire track history